Time;durP1;ratioP1;P1;durP2;ratioP2;P2;SDS_P1;SDS_P2;PMS_P1;PMS_P2;Temp;Humidity;BMP_temperature;BMP_pressure;BME280_temperature;BME280_humidity;BME280_pressure;Samples;Min_cycle;Max_cycle;Signal;HPM_P1;HPM_P2
2022/10/24 00:00:07;;;;;;;4.78;1.40;;;16.10;99.90;;;;;;5106364;27;20038;-82
2022/10/24 00:02:34;;;;;;;5.18;1.60;;;16.10;99.90;;;;;;5120183;27;20051;-81
2022/10/24 00:05:00;;;;;;;5.60;1.50;;;16.10;99.90;;;;;;5121959;27;20042;-82
2022/10/24 00:07:25;;;;;;;4.93;1.40;;;16.10;99.90;;;;;;5122897;27;20111;-82
2022/10/24 00:09:51;;;;;;;5.53;1.42;;;16.10;99.90;;;;;;5121611;27;20047;-82
2022/10/24 00:12:18;;;;;;;6.25;1.88;;;16.10;99.90;;;;;;5102318;27;20051;-82
2022/10/24 00:14:43;;;;;;;6.88;1.60;;;16.10;99.90;;;;;;5103474;27;20058;-81
2022/10/24 00:17:09;;;;;;;3.22;1.40;;;16.10;99.90;;;;;;5137437;27;20395;-82
2022/10/24 00:19:35;;;;;;;4.72;1.50;;;16.00;99.90;;;;;;5108788;27;20040;-82
2022/10/24 00:22:01;;;;;;;4.55;1.45;;;16.00;99.90;;;;;;5138277;27;20067;-82
2022/10/24 00:24:27;;;;;;;8.18;1.88;;;16.00;99.90;;;;;;5140453;27;20046;-81
2022/10/24 00:26:52;;;;;;;6.47;1.65;;;16.00;99.90;;;;;;5140819;27;20039;-82
2022/10/24 00:29:18;;;;;;;6.20;1.50;;;16.00;99.90;;;;;;5102626;27;20046;-81
2022/10/24 00:31:44;;;;;;;4.22;1.50;;;15.90;99.90;;;;;;5102746;27;20083;-81
2022/10/24 00:34:09;;;;;;;4.22;1.45;;;15.90;99.90;;;;;;5123814;27;20472;-81
2022/10/24 00:36:35;;;;;;;3.22;1.30;;;15.90;99.90;;;;;;5121743;27;20035;-82
2022/10/24 00:39:01;;;;;;;7.47;1.60;;;15.90;99.90;;;;;;5122868;27;20078;-83
2022/10/24 00:41:33;;;;;;;7.05;2.05;;;15.80;99.90;;;;;;5106674;27;20031;-82
2022/10/24 00:44:19;;;;;;;4.90;2.00;;;15.80;99.90;;;;;;5124456;27;20038;-82
2022/10/24 00:46:56;;;;;;;5.82;2.10;;;15.90;99.90;;;;;;5130696;27;20043;-82
2022/10/24 00:49:44;;;;;;;6.18;1.80;;;15.90;99.90;;;;;;5132807;27;20126;-82
2022/10/24 00:52:12;;;;;;;7.07;2.30;;;15.90;99.90;;;;;;5096661;27;20062;-82
2022/10/24 00:54:40;;;;;;;4.78;1.92;;;15.90;99.90;;;;;;5155599;27;20047;-82
2022/10/24 00:57:47;;;;;;;8.18;2.35;;;15.90;99.90;;;;;;5139057;27;20031;-82
2022/10/24 01:00:16;;;;;;;7.63;2.65;;;15.90;99.90;;;;;;5089568;27;20133;-82
2022/10/24 01:02:42;;;;;;;10.52;3.08;;;15.90;99.90;;;;;;5140036;27;20046;-82
2022/10/24 01:05:10;;;;;;;11.63;2.58;;;15.90;99.90;;;;;;5134915;27;20467;-82
2022/10/24 01:07:57;;;;;;;8.55;2.80;;;15.90;99.90;;;;;;5122104;27;20117;-83
2022/10/24 01:10:34;;;;;;;8.27;2.90;;;16.00;99.90;;;;;;5156439;27;20034;-82
2022/10/24 01:13:21;;;;;;;9.70;2.80;;;16.00;99.90;;;;;;5138909;27;20074;-82
2022/10/24 01:15:50;;;;;;;7.95;2.40;;;15.90;99.90;;;;;;5157479;27;20421;-82
2022/10/24 01:18:27;;;;;;;9.35;3.13;;;15.90;99.90;;;;;;5157565;27;20045;-82
2022/10/24 01:21:04;;;;;;;8.63;2.80;;;15.90;99.90;;;;;;5161736;27;20043;-82
2022/10/24 01:23:42;;;;;;;8.15;2.83;;;15.90;99.90;;;;;;5157070;27;20124;-82
2022/10/24 01:26:46;;;;;;;7.50;2.55;;;15.80;99.90;;;;;;5156636;27;20043;-82
2022/10/24 01:29:34;;;;;;;10.60;2.90;;;15.80;99.90;;;;;;5157438;27;20046;-82
2022/10/24 01:32:08;;;;;;;10.30;2.80;;;15.80;99.90;;;;;;5139943;27;20170;-82
2022/10/24 01:34:53;;;;;;;6.15;2.70;;;15.70;99.90;;;;;;5136469;27;20078;-82
2022/10/24 01:37:28;;;;;;;8.52;2.28;;;15.70;99.90;;;;;;5137946;27;20340;-82
2022/10/24 01:40:01;;;;;;;5.38;2.30;;;15.70;99.90;;;;;;5156506;27;20049;-82
2022/10/24 01:42:30;;;;;;;7.13;2.92;;;15.70;99.90;;;;;;5139316;27;20075;-82
2022/10/24 01:44:58;;;;;;;10.57;2.55;;;15.70;99.90;;;;;;5156909;27;20035;-82
2022/10/24 01:47:32;;;;;;;6.68;2.63;;;15.70;99.90;;;;;;5117775;27;20034;-82
2022/10/24 01:50:02;;;;;;;9.38;2.75;;;15.80;99.90;;;;;;5155596;27;20647;-82
2022/10/24 01:52:31;;;;;;;7.13;2.22;;;15.80;99.90;;;;;;5156116;27;20406;-82
2022/10/24 01:54:57;;;;;;;10.50;2.25;;;15.80;99.90;;;;;;5156377;27;20030;-82
2022/10/24 01:57:30;;;;;;;7.80;2.45;;;15.70;99.90;;;;;;5138933;27;20046;-81
2022/10/24 01:59:56;;;;;;;8.15;2.78;;;15.80;99.90;;;;;;5156045;27;20500;-82
2022/10/24 02:02:38;;;;;;;7.70;2.25;;;15.70;99.90;;;;;;5120985;27;20031;-81
2022/10/24 02:05:04;;;;;;;7.95;2.40;;;15.70;99.90;;;;;;5156170;27;20042;-82
2022/10/24 02:07:31;;;;;;;7.45;2.30;;;15.70;99.90;;;;;;5138952;27;20125;-81
2022/10/24 02:10:08;;;;;;;8.52;2.60;;;15.70;99.90;;;;;;5139274;27;20462;-82
2022/10/24 02:12:38;;;;;;;6.82;2.05;;;15.60;99.90;;;;;;5138788;27;20043;-82
2022/10/24 02:15:11;;;;;;;6.72;2.50;;;15.70;99.90;;;;;;5138044;27;20030;-81
2022/10/24 02:17:37;;;;;;;8.93;2.15;;;15.70;99.90;;;;;;5138582;27;20041;-82
2022/10/24 02:20:03;;;;;;;5.85;2.50;;;15.70;99.90;;;;;;5138580;27;20038;-82
2022/10/24 02:22:46;;;;;;;10.45;2.50;;;15.70;99.90;;;;;;5121341;27;20475;-81
2022/10/24 02:25:23;;;;;;;11.05;2.42;;;15.70;99.90;;;;;;5138608;27;20038;-82
2022/10/24 02:28:10;;;;;;;7.78;2.28;;;15.80;99.90;;;;;;5155399;27;20073;-81
2022/10/24 02:30:41;;;;;;;6.20;2.30;;;15.80;99.90;;;;;;5138390;27;20121;-82
2022/10/24 02:33:08;;;;;;;10.20;2.13;;;15.80;99.90;;;;;;5135295;27;20081;-82
2022/10/24 02:35:36;;;;;;;6.55;2.97;;;15.80;99.90;;;;;;5100976;27;20455;-82
2022/10/24 02:38:29;;;;;;;7.38;2.20;;;15.70;99.90;;;;;;5117816;27;20031;-82
2022/10/24 02:40:57;;;;;;;7.82;2.30;;;15.80;99.90;;;;;;5117790;27;20039;-82
2022/10/24 02:43:24;;;;;;;7.68;2.33;;;15.80;99.90;;;;;;5123936;27;20035;-82
2022/10/24 02:45:53;;;;;;;9.60;2.30;;;15.80;99.90;;;;;;5134546;27;20047;-81
2022/10/24 02:48:25;;;;;;;6.35;2.13;;;15.80;99.90;;;;;;5146317;27;20042;-82
2022/10/24 02:50:51;;;;;;;5.70;2.45;;;15.80;99.90;;;;;;5155815;27;20046;-82
2022/10/24 02:53:20;;;;;;;7.90;2.40;;;15.90;99.90;;;;;;5138128;27;20041;-81
2022/10/24 02:55:46;;;;;;;12.88;2.92;;;15.80;99.90;;;;;;5137489;27;20045;-82
2022/10/24 02:58:11;;;;;;;8.85;2.70;;;15.90;99.90;;;;;;5137718;27;20546;-82
2022/10/24 03:00:37;;;;;;;6.20;2.65;;;15.90;99.90;;;;;;5155494;27;20039;-82
2022/10/24 03:03:03;;;;;;;8.88;2.45;;;15.90;99.90;;;;;;5138400;27;20043;-82
2022/10/24 03:05:28;;;;;;;10.10;2.15;;;15.80;99.90;;;;;;5137927;27;20045;-82
2022/10/24 03:07:54;;;;;;;8.75;2.50;;;15.90;99.90;;;;;;5106764;27;20039;-81
2022/10/24 03:10:20;;;;;;;9.73;2.53;;;15.90;99.90;;;;;;5112819;27;20090;-83
2022/10/24 03:12:45;;;;;;;6.80;2.45;;;15.80;99.90;;;;;;5117217;27;20051;-81
2022/10/24 03:15:13;;;;;;;7.65;2.42;;;15.90;99.90;;;;;;5129475;27;20041;-81
2022/10/24 03:17:38;;;;;;;7.18;2.33;;;15.90;99.90;;;;;;5137922;27;20035;-82
2022/10/24 03:20:04;;;;;;;6.47;2.20;;;15.90;99.90;;;;;;5138527;27;20122;-82
2022/10/24 03:22:30;;;;;;;7.38;2.15;;;15.90;99.90;;;;;;5138042;27;20034;-82
2022/10/24 03:24:56;;;;;;;4.70;2.03;;;15.90;99.90;;;;;;5121026;27;20037;-82
2022/10/24 03:27:22;;;;;;;6.18;2.17;;;16.00;99.90;;;;;;5117067;28;20032;-83
2022/10/24 03:29:48;;;;;;;6.68;2.42;;;16.00;99.90;;;;;;5105485;28;20032;-82
2022/10/24 03:32:13;;;;;;;7.97;1.90;;;16.00;99.90;;;;;;5100392;28;20035;-82
2022/10/24 03:34:39;;;;;;;8.27;2.63;;;16.00;99.90;;;;;;5117467;28;20035;-82
2022/10/24 03:37:05;;;;;;;7.35;2.42;;;16.00;99.90;;;;;;5098067;27;20039;-82
2022/10/24 03:39:30;;;;;;;9.57;2.90;;;16.00;99.90;;;;;;5116480;28;20501;-82
2022/10/24 03:41:56;;;;;;;10.10;2.33;;;16.00;99.90;;;;;;5117209;27;20045;-82
2022/10/24 03:44:22;;;;;;;10.25;2.45;;;16.00;99.90;;;;;;5129022;28;20543;-82
2022/10/24 03:46:47;;;;;;;8.43;2.83;;;16.00;99.90;;;;;;5135819;27;20398;-82
2022/10/24 03:49:13;;;;;;;8.48;2.30;;;15.90;99.90;;;;;;5095946;28;20118;-82
2022/10/24 03:51:39;;;;;;;4.15;1.70;;;15.90;99.90;;;;;;5099540;27;20076;-82
2022/10/24 03:54:04;;;;;;;7.15;2.42;;;15.90;99.90;;;;;;5120478;27;20481;-81
2022/10/24 03:56:30;;;;;;;8.43;2.08;;;15.90;99.90;;;;;;5119717;27;20034;-82
2022/10/24 03:58:56;;;;;;;9.18;2.50;;;15.90;99.90;;;;;;5099652;27;20386;-82
2022/10/24 04:01:23;;;;;;;5.53;2.17;;;15.80;99.90;;;;;;5117109;27;20030;-82
2022/10/24 04:03:48;;;;;;;10.23;2.38;;;15.80;99.90;;;;;;5117690;27;20043;-82
2022/10/24 04:06:14;;;;;;;7.25;2.40;;;15.80;99.90;;;;;;5153645;27;20107;-82
2022/10/24 04:08:40;;;;;;;8.70;2.10;;;15.80;99.90;;;;;;5102131;27;20475;-82
2022/10/24 04:11:06;;;;;;;9.55;2.40;;;15.80;99.90;;;;;;5136518;27;20050;-82
2022/10/24 04:13:33;;;;;;;8.63;1.98;;;15.70;99.90;;;;;;5136663;27;20051;-82
2022/10/24 04:15:59;;;;;;;8.45;2.53;;;15.70;99.90;;;;;;5150600;27;20368;-82
2022/10/24 04:18:24;;;;;;;8.00;2.80;;;15.70;99.90;;;;;;5120170;27;20064;-82
2022/10/24 04:20:50;;;;;;;11.20;2.30;;;15.60;99.90;;;;;;5136814;27;20395;-82
2022/10/24 04:23:16;;;;;;;9.02;1.90;;;15.60;99.90;;;;;;5120318;27;20043;-82
2022/10/24 04:25:42;;;;;;;6.78;1.88;;;15.60;99.90;;;;;;5123498;27;20038;-82
2022/10/24 04:28:08;;;;;;;6.78;1.80;;;15.60;99.90;;;;;;5140649;27;20386;-82
2022/10/24 04:30:33;;;;;;;9.80;2.42;;;15.50;99.90;;;;;;5119591;27;20047;-84
2022/10/24 04:32:59;;;;;;;9.68;2.20;;;15.40;99.90;;;;;;5143456;27;20039;-82
2022/10/24 04:35:25;;;;;;;6.60;2.30;;;15.90;99.90;;;;;;5119558;27;20090;-82
2022/10/24 04:37:51;;;;;;;8.07;2.10;;;15.50;99.90;;;;;;5139079;27;20035;-82
2022/10/24 04:40:16;;;;;;;10.35;2.45;;;15.40;99.90;;;;;;5140029;27;20497;-82
2022/10/24 04:42:42;;;;;;;9.32;2.42;;;15.40;99.90;;;;;;5140263;27;20046;-82
2022/10/24 04:45:09;;;;;;;5.47;1.98;;;15.30;99.90;;;;;;5133827;27;20043;-82
2022/10/24 04:47:35;;;;;;;7.95;2.22;;;15.30;99.90;;;;;;5129448;27;20494;-82
2022/10/24 04:50:01;;;;;;;6.78;1.98;;;15.30;99.90;;;;;;5136621;27;20031;-82
2022/10/24 04:52:27;;;;;;;7.45;1.90;;;15.30;99.90;;;;;;5119933;27;20042;-82
2022/10/24 04:54:52;;;;;;;10.70;2.15;;;15.30;99.90;;;;;;5139957;27;20451;-82
2022/10/24 04:57:18;;;;;;;4.50;1.63;;;15.30;99.90;;;;;;5106267;27;20038;-82
2022/10/24 04:59:44;;;;;;;8.93;1.80;;;15.20;99.90;;;;;;5137131;27;20035;-82
2022/10/24 05:02:10;;;;;;;10.20;2.13;;;15.30;99.90;;;;;;5119415;27;20049;-83
2022/10/24 05:04:35;;;;;;;6.18;1.60;;;15.30;99.90;;;;;;5121278;27;20121;-82
2022/10/24 05:07:01;;;;;;;8.43;2.10;;;15.30;99.90;;;;;;5118360;27;20034;-82
2022/10/24 05:09:27;;;;;;;7.60;1.90;;;15.20;99.90;;;;;;5118771;27;20046;-82
2022/10/24 05:11:56;;;;;;;8.20;1.70;;;15.20;99.90;;;;;;5140054;27;20046;-82
2022/10/24 05:14:22;;;;;;;6.82;2.00;;;15.10;99.90;;;;;;5139654;27;20075;-83
2022/10/24 05:16:48;;;;;;;7.93;2.10;;;15.10;99.90;;;;;;5121695;27;20479;-82
2022/10/24 05:19:15;;;;;;;6.60;1.98;;;15.10;99.90;;;;;;5116961;27;20421;-83
2022/10/24 05:21:41;;;;;;;6.22;1.75;;;15.10;99.90;;;;;;5120285;27;20038;-83
2022/10/24 05:24:07;;;;;;;4.85;1.60;;;15.10;99.90;;;;;;5121873;27;20031;-82
2022/10/24 05:26:33;;;;;;;5.53;1.77;;;15.00;99.90;;;;;;5133029;27;20460;-82
2022/10/24 05:28:58;;;;;;;7.90;1.80;;;15.10;99.90;;;;;;5105501;27;20031;-82
2022/10/24 05:31:24;;;;;;;8.15;1.58;;;15.00;99.90;;;;;;5122173;27;20050;-82
2022/10/24 05:33:50;;;;;;;8.23;2.00;;;15.00;99.90;;;;;;5138385;27;20122;-82
2022/10/24 05:36:16;;;;;;;6.63;2.00;;;15.00;99.90;;;;;;5117772;27;20484;-83
2022/10/24 05:38:42;;;;;;;9.82;2.00;;;15.00;99.90;;;;;;5099682;27;20035;-82
2022/10/24 05:41:07;;;;;;;3.85;1.30;;;15.00;99.90;;;;;;5139172;27;20041;-82
2022/10/24 05:43:33;;;;;;;5.55;1.55;;;15.10;99.90;;;;;;5139060;27;20049;-82
2022/10/24 05:45:59;;;;;;;7.30;1.80;;;15.10;99.90;;;;;;5139457;27;20038;-82
2022/10/24 05:48:24;;;;;;;6.38;1.55;;;15.10;99.90;;;;;;5122431;27;20043;-82
2022/10/24 05:50:54;;;;;;;6.28;1.92;;;15.20;99.90;;;;;;5147027;27;20046;-80
2022/10/24 05:53:19;;;;;;;7.53;1.48;;;15.20;99.90;;;;;;5146582;27;20118;-81
2022/10/24 05:55:45;;;;;;;4.95;1.60;;;15.20;99.90;;;;;;5134126;27;20068;-83
2022/10/24 05:58:11;;;;;;;6.78;1.52;;;15.30;99.90;;;;;;5110012;27;20039;-82
2022/10/24 06:00:37;;;;;;;7.80;1.77;;;15.30;99.90;;;;;;5139271;27;20569;-81
2022/10/24 06:03:02;;;;;;;5.63;1.55;;;15.40;99.90;;;;;;5138850;27;20164;-82
2022/10/24 06:05:28;;;;;;;7.88;1.65;;;15.30;99.90;;;;;;5102968;27;20470;-81
2022/10/24 06:07:54;;;;;;;6.35;1.73;;;15.30;99.90;;;;;;5137384;27;20038;-81
2022/10/24 06:10:20;;;;;;;4.55;1.40;;;15.30;99.90;;;;;;5122235;27;20034;-82
2022/10/24 06:12:45;;;;;;;5.05;1.70;;;15.30;99.90;;;;;;5105520;27;20043;-82
2022/10/24 06:15:12;;;;;;;8.18;1.50;;;15.30;99.90;;;;;;5135943;27;20483;-82
2022/10/24 06:17:38;;;;;;;5.03;1.48;;;15.30;99.90;;;;;;5138585;27;20046;-83
2022/10/24 06:20:04;;;;;;;7.60;1.80;;;15.30;99.90;;;;;;5122227;27;20501;-81
2022/10/24 06:22:30;;;;;;;4.97;1.60;;;15.40;99.90;;;;;;5122477;27;20126;-81
2022/10/24 06:24:56;;;;;;;6.47;1.67;;;15.40;99.90;;;;;;5139928;27;20469;-83
2022/10/24 06:27:22;;;;;;;6.00;1.25;;;15.40;99.90;;;;;;5104636;27;20058;-82
2022/10/24 06:29:48;;;;;;;5.35;1.60;;;15.30;99.90;;;;;;5139229;27;20066;-82
2022/10/24 06:32:13;;;;;;;5.13;1.60;;;15.40;99.90;;;;;;5156443;27;20053;-82
2022/10/24 06:34:39;;;;;;;8.65;1.80;;;15.40;99.90;;;;;;5138710;27;20031;-82
2022/10/24 06:37:05;;;;;;;8.98;2.40;;;15.40;99.90;;;;;;5138520;27;20039;-82
2022/10/24 06:39:31;;;;;;;6.20;1.52;;;15.40;99.90;;;;;;5138138;27;20121;-81
2022/10/24 06:41:56;;;;;;;4.38;1.27;;;15.40;99.90;;;;;;5104322;27;20030;-81
2022/10/24 06:44:22;;;;;;;7.13;1.50;;;15.40;99.90;;;;;;5121660;27;20039;-81
2022/10/24 06:46:47;;;;;;;5.38;1.58;;;15.40;99.90;;;;;;5138221;27;20107;-82
2022/10/24 06:49:14;;;;;;;7.72;1.60;;;15.50;99.90;;;;;;5121033;27;20149;-83
2022/10/24 06:51:40;;;;;;;4.88;1.63;;;15.50;99.90;;;;;;5155324;27;20042;-84
2022/10/24 06:54:05;;;;;;;7.63;1.38;;;15.50;99.90;;;;;;5120506;27;20050;-84
2022/10/24 06:56:31;;;;;;;6.40;1.88;;;15.50;99.90;;;;;;5147279;27;20094;-84
2022/10/24 06:58:57;;;;;;;7.80;1.75;;;15.60;99.90;;;;;;5121423;27;20064;-84
2022/10/24 07:01:24;;;;;;;8.18;1.90;;;15.60;99.90;;;;;;5138338;27;20039;-83
2022/10/24 07:03:52;;;;;;;6.80;1.52;;;15.60;99.90;;;;;;5155523;27;20044;-83
2022/10/24 07:06:21;;;;;;;9.10;1.80;;;15.60;99.90;;;;;;5131396;27;20027;-82
2022/10/24 07:08:47;;;;;;;8.27;2.03;;;15.70;99.90;;;;;;5123138;27;20034;-82
2022/10/24 07:11:13;;;;;;;8.95;1.80;;;15.70;99.90;;;;;;5104762;27;20402;-82
2022/10/24 07:13:38;;;;;;;6.55;1.88;;;15.80;99.90;;;;;;5138491;27;20066;-83
2022/10/24 07:16:05;;;;;;;8.35;2.10;;;15.80;99.90;;;;;;5120140;27;20031;-83
2022/10/24 07:18:31;;;;;;;6.18;2.03;;;15.80;99.90;;;;;;5137756;27;20039;-83
2022/10/24 07:21:06;;;;;;;7.72;1.60;;;15.80;99.90;;;;;;5150241;27;20045;-84
2022/10/24 07:23:32;;;;;;;7.90;1.52;;;15.80;99.90;;;;;;5134889;27;20135;-84
2022/10/24 07:26:04;;;;;;;6.35;1.48;;;15.80;99.90;;;;;;5129162;27;20049;-84
2022/10/24 07:28:30;;;;;;;4.72;1.63;;;15.80;99.90;;;;;;5155018;27;20038;-84
2022/10/24 07:30:55;;;;;;;5.50;1.75;;;15.70;99.90;;;;;;5155399;27;20046;-83
2022/10/24 07:33:21;;;;;;;7.65;1.70;;;15.80;99.90;;;;;;5134557;27;20070;-82
2022/10/24 07:35:47;;;;;;;10.10;1.73;;;15.80;99.90;;;;;;5134333;27;20074;-83
2022/10/24 07:38:12;;;;;;;5.85;1.63;;;15.80;99.90;;;;;;5137753;27;20045;-83
2022/10/24 07:40:38;;;;;;;7.00;1.90;;;15.80;99.90;;;;;;5119204;27;20145;-83
2022/10/24 07:43:04;;;;;;;8.05;2.13;;;15.80;99.90;;;;;;5152822;27;20050;-84
2022/10/24 07:45:31;;;;;;;7.60;1.88;;;15.80;99.90;;;;;;5101422;28;20043;-84
2022/10/24 07:47:58;;;;;;;5.97;2.08;;;15.90;99.90;;;;;;5134034;28;20054;-84
2022/10/24 07:50:25;;;;;;;14.93;1.83;;;15.90;99.90;;;;;;5130601;27;20070;-83
2022/10/24 07:52:51;;;;;;;5.15;1.98;;;15.90;99.90;;;;;;5116765;28;20040;-83
2022/10/24 07:55:17;;;;;;;7.97;1.40;;;16.00;99.90;;;;;;5117461;28;20088;-83
2022/10/24 07:57:43;;;;;;;8.05;1.63;;;16.00;99.90;;;;;;5132084;27;20042;-83
2022/10/24 08:00:09;;;;;;;7.82;1.73;;;15.90;99.90;;;;;;5122591;27;20030;-83
2022/10/24 08:02:35;;;;;;;7.55;1.70;;;16.00;99.90;;;;;;5107899;27;20046;-82
2022/10/24 08:05:00;;;;;;;4.57;1.73;;;16.00;99.90;;;;;;5159532;27;20034;-83
2022/10/24 08:07:26;;;;;;;6.80;1.80;;;16.10;99.90;;;;;;5103969;27;20034;-83
2022/10/24 08:09:52;;;;;;;10.35;1.90;;;16.10;99.90;;;;;;5104742;27;20035;-83
2022/10/24 08:12:17;;;;;;;7.93;1.73;;;16.10;99.90;;;;;;5121423;27;20487;-82
2022/10/24 08:14:43;;;;;;;13.27;2.00;;;16.20;99.90;;;;;;5123507;27;20430;-82
2022/10/24 08:17:09;;;;;;;6.15;1.75;;;16.20;99.90;;;;;;5139417;27;20035;-82
2022/10/24 08:19:35;;;;;;;6.93;1.58;;;16.20;99.90;;;;;;5090280;27;20037;-83
2022/10/24 08:22:02;;;;;;;6.28;2.00;;;16.20;99.90;;;;;;5140900;27;20070;-84
2022/10/24 08:24:28;;;;;;;7.13;2.25;;;16.20;99.90;;;;;;5141263;27;20566;-82
2022/10/24 08:26:55;;;;;;;6.68;1.50;;;16.30;99.90;;;;;;5124236;27;20135;-82
2022/10/24 08:29:22;;;;;;;10.75;1.77;;;16.30;99.90;;;;;;5131359;27;20034;-82
2022/10/24 08:31:49;;;;;;;10.48;1.95;;;16.30;99.90;;;;;;5131682;27;20046;-84
2022/10/24 08:34:16;;;;;;;12.13;1.90;;;16.50;99.90;;;;;;5140659;27;20038;-83
2022/10/24 08:36:42;;;;;;;7.95;1.98;;;16.50;99.90;;;;;;5123050;27;20404;-83
2022/10/24 08:39:08;;;;;;;13.63;1.80;;;16.60;99.90;;;;;;5123517;27;20099;-83
2022/10/24 08:41:54;;;;;;;9.40;1.88;;;16.60;99.90;;;;;;5139772;27;20046;-83
2022/10/24 08:44:41;;;;;;;10.70;2.17;;;16.60;99.90;;;;;;5135423;27;20034;-83
2022/10/24 08:47:26;;;;;;;8.90;1.90;;;16.70;99.90;;;;;;5133040;27;20057;-82
2022/10/24 08:50:22;;;;;;;8.80;1.58;;;16.70;99.90;;;;;;5137677;27;20042;-83
2022/10/24 08:53:00;;;;;;;7.65;1.85;;;16.70;99.90;;;;;;5124188;27;20126;-83
2022/10/24 08:55:45;;;;;;;9.70;1.75;;;16.60;99.90;;;;;;5133977;27;20111;-82
2022/10/24 08:58:23;;;;;;;10.55;1.35;;;16.60;99.90;;;;;;5134938;27;20390;-82
2022/10/24 09:00:52;;;;;;;4.75;1.55;;;16.60;99.90;;;;;;5133344;27;20448;-83
2022/10/24 09:03:26;;;;;;;7.47;1.60;;;16.60;99.90;;;;;;5133584;27;20031;-83
2022/10/24 09:06:02;;;;;;;11.35;1.90;;;16.60;99.90;;;;;;5138844;27;20386;-83
2022/10/24 09:08:53;;;;;;;8.73;1.70;;;16.50;99.90;;;;;;5154783;27;20088;-83
2022/10/24 09:11:47;;;;;;;8.65;1.90;;;16.50;99.90;;;;;;5126753;27;20054;-82
2022/10/24 09:14:31;;;;;;;7.80;1.80;;;16.60;99.90;;;;;;5131943;27;20078;-82
2022/10/24 09:17:00;;;;;;;10.45;2.03;;;16.60;99.90;;;;;;5127942;27;20407;-82
2022/10/24 09:19:29;;;;;;;4.72;1.33;;;16.60;99.90;;;;;;5167075;27;20059;-82
2022/10/24 09:21:56;;;;;;;15.20;2.00;;;16.70;99.90;;;;;;5130439;27;20499;-82
2022/10/24 09:24:43;;;;;;;7.47;1.40;;;16.70;99.90;;;;;;5157490;27;20038;-82
2022/10/24 09:27:20;;;;;;;;;;;16.80;99.90;;;;;;5149150;27;20054;-82
2022/10/24 09:29:46;;;;;;;7.57;2.05;;;16.80;99.90;;;;;;5155015;27;20328;-83
2022/10/24 09:32:22;;;;;;;10.23;1.48;;;16.80;99.90;;;;;;5138723;27;20047;-83
2022/10/24 09:34:49;;;;;;;8.13;1.27;;;16.90;99.90;;;;;;5133946;27;20043;-86
2022/10/24 09:37:40;;;;;;;8.75;2.40;;;16.90;99.90;;;;;;5155898;27;20047;-83
2022/10/24 09:40:23;;;;;;;8.80;2.22;;;16.90;99.90;;;;;;5127627;27;20073;-84
2022/10/24 09:43:13;;;;;;;8.80;1.50;;;16.90;99.90;;;;;;5136074;27;20050;-85
2022/10/24 09:45:42;;;;;;;6.88;2.20;;;17.10;99.90;;;;;;5153073;27;20100;-83
2022/10/24 09:48:23;;;;;;;7.47;1.42;;;17.10;99.90;;;;;;5131837;27;20130;-84
2022/10/24 09:50:51;;;;;;;8.27;1.83;;;17.10;99.90;;;;;;5145207;27;20042;-82
2022/10/24 09:53:35;;;;;;;5.95;1.50;;;17.10;99.90;;;;;;5130387;27;20053;-84
2022/10/24 09:56:08;;;;;;;4.93;1.15;;;16.90;99.90;;;;;;5155741;27;20049;-82
2022/10/24 09:58:34;;;;;;;6.63;1.80;;;16.90;99.90;;;;;;5137984;27;20057;-82
2022/10/24 10:01:15;;;;;;;11.05;1.73;;;16.90;99.90;;;;;;5133749;27;20370;-82
2022/10/24 10:03:42;;;;;;;4.07;1.30;;;17.00;99.90;;;;;;5153554;27;20077;-81
2022/10/24 10:06:17;;;;;;;6.90;1.48;;;17.00;99.90;;;;;;5138342;27;20046;-81
2022/10/24 10:08:49;;;;;;;4.47;1.03;;;17.10;99.90;;;;;;5148062;27;20129;-82
2022/10/24 10:11:23;;;;;;;8.55;1.23;;;17.10;99.90;;;;;;5149644;27;20305;-83
2022/10/24 10:13:52;;;;;;;6.32;1.48;;;17.10;99.90;;;;;;5126329;27;20047;-83
2022/10/24 10:16:31;;;;;;;6.20;1.70;;;17.00;99.90;;;;;;5136381;27;20050;-83
2022/10/24 10:19:13;;;;;;;6.82;1.10;;;16.90;99.90;;;;;;5129939;27;20109;-82
2022/10/24 10:22:01;;;;;;;7.20;1.30;;;16.90;99.90;;;;;;5143220;27;20048;-82
2022/10/24 10:24:44;;;;;;;6.80;1.55;;;16.90;99.90;;;;;;5149871;27;20046;-83
2022/10/24 10:27:29;;;;;;;6.00;1.42;;;17.10;99.90;;;;;;5172352;27;20050;-84
2022/10/24 10:30:15;;;;;;;5.38;1.25;;;17.10;99.90;;;;;;5155714;27;20053;-83
2022/10/24 10:33:19;;;;;;;6.57;1.58;;;17.20;99.90;;;;;;5133608;27;20035;-83
2022/10/24 10:36:10;;;;;;;6.05;1.38;;;17.20;99.90;;;;;;5137084;27;20045;-83
2022/10/24 10:38:42;;;;;;;7.53;1.48;;;17.10;99.90;;;;;;5136047;27;20043;-83
2022/10/24 10:41:28;;;;;;;8.75;1.60;;;17.00;99.90;;;;;;5124447;27;20069;-82
2022/10/24 10:44:31;;;;;;;9.18;1.60;;;17.00;99.90;;;;;;5151556;27;20101;-83
2022/10/24 10:47:06;;;;;;;8.70;1.38;;;17.00;99.90;;;;;;5137236;27;20049;-82
2022/10/24 10:49:36;;;;;;;4.93;1.33;;;16.90;99.90;;;;;;5155482;27;20039;-82
2022/10/24 10:52:11;;;;;;;7.10;1.63;;;17.00;99.90;;;;;;5136377;27;20080;-82
2022/10/24 10:54:57;;;;;;;9.85;1.95;;;16.90;99.90;;;;;;5141934;27;20043;-82
2022/10/24 10:57:33;;;;;;;8.05;1.63;;;17.00;99.90;;;;;;5129406;27;20089;-82
2022/10/24 11:00:16;;;;;;;8.60;1.70;;;17.00;99.90;;;;;;5136168;27;20064;-83
2022/10/24 11:02:57;;;;;;;6.60;1.75;;;17.00;99.90;;;;;;5132853;27;20080;-83
2022/10/24 11:05:47;;;;;;;6.40;1.45;;;17.00;99.90;;;;;;5152885;27;20027;-83
2022/10/24 11:08:19;;;;;;;5.43;1.23;;;17.10;99.90;;;;;;5130287;27;20034;-82
2022/10/24 11:10:53;;;;;;;4.45;1.20;;;17.10;99.90;;;;;;5152693;27;20062;-83
2022/10/24 11:13:53;;;;;;;6.72;1.13;;;17.10;99.90;;;;;;5148590;27;20061;-82
2022/10/24 11:16:27;;;;;;;5.20;1.48;;;17.20;99.90;;;;;;5122814;27;20043;-83
2022/10/24 11:19:02;;;;;;;7.57;1.70;;;17.20;99.90;;;;;;5149231;27;20039;-83
2022/10/24 11:21:31;;;;;;;6.32;1.63;;;17.30;99.90;;;;;;5137409;27;20107;-83
2022/10/24 11:24:00;;;;;;;5.18;1.48;;;17.30;99.90;;;;;;5129719;27;20042;-82
2022/10/24 11:26:32;;;;;;;8.93;1.40;;;17.30;99.90;;;;;;5137301;27;20054;-83
2022/10/24 11:29:23;;;;;;;5.72;1.25;;;17.30;99.90;;;;;;5135375;27;20046;-82
2022/10/24 11:31:54;;;;;;;5.22;1.50;;;17.30;99.90;;;;;;5119135;27;20051;-82
2022/10/24 11:34:31;;;;;;;14.48;1.48;;;17.20;99.90;;;;;;5135071;27;20050;-84
2022/10/24 11:37:19;;;;;;;4.43;1.42;;;17.20;99.90;;;;;;5129072;27;20043;-82
2022/10/24 11:40:11;;;;;;;6.28;1.52;;;17.20;99.90;;;;;;5137307;27;20039;-83
2022/10/24 11:43:26;;;;;;;7.25;1.55;;;17.30;99.90;;;;;;5153396;27;20087;-84
2022/10/24 11:45:59;;;;;;;7.15;1.55;;;17.60;99.90;;;;;;5134911;27;20375;-83
2022/10/24 11:48:44;;;;;;;6.80;1.33;;;17.60;99.90;;;;;;5136292;27;20030;-82
2022/10/24 11:51:26;;;;;;;7.68;1.65;;;17.60;99.90;;;;;;5151870;27;20043;-82
2022/10/24 11:54:10;;;;;;;9.00;1.63;;;17.50;99.90;;;;;;5131716;27;20041;-82
2022/10/24 11:57:00;;;;;;;5.55;1.20;;;17.50;99.90;;;;;;5123597;27;20039;-82
2022/10/24 11:59:26;;;;;;;5.97;1.10;;;17.40;99.90;;;;;;5152707;27;20110;-82
2022/10/24 12:01:55;;;;;;;6.10;1.30;;;17.30;99.90;;;;;;5135248;27;20078;-82
2022/10/24 12:04:56;;;;;;;6.88;1.60;;;17.30;99.90;;;;;;5136626;27;20066;-82
2022/10/24 12:07:45;;;;;;;5.30;2.15;;;17.20;99.90;;;;;;5092363;28;20516;-82
2022/10/24 12:10:32;;;;;;;6.97;1.38;;;17.20;99.90;;;;;;5130820;27;20057;-82
2022/10/24 12:13:12;;;;;;;5.85;1.33;;;17.30;99.90;;;;;;5125328;27;20058;-82
2022/10/24 12:15:52;;;;;;;6.32;1.27;;;17.20;99.90;;;;;;5124942;28;20464;-82
2022/10/24 12:18:36;;;;;;;5.82;1.45;;;17.20;99.90;;;;;;5125603;27;20633;-83
2022/10/24 12:21:08;;;;;;;5.20;1.20;;;17.20;99.90;;;;;;5133546;27;20109;-82
2022/10/24 12:23:34;;;;;;;5.32;1.17;;;17.20;99.90;;;;;;5145751;27;20071;-82
2022/10/24 12:26:17;;;;;;;4.95;1.20;;;17.20;99.90;;;;;;5135669;27;20043;-82
2022/10/24 12:28:56;;;;;;;6.63;1.27;;;17.20;99.90;;;;;;5133075;27;20050;-82
2022/10/24 12:31:28;;;;;;;7.80;1.30;;;17.10;99.90;;;;;;5135079;27;20053;-82
2022/10/24 12:34:15;;;;;;;5.07;1.20;;;17.10;99.90;;;;;;5135706;27;20057;-82
2022/10/24 12:37:02;;;;;;;4.70;1.17;;;17.10;99.90;;;;;;5151684;27;20038;-82
2022/10/24 12:39:33;;;;;;;5.82;1.10;;;17.10;99.90;;;;;;5152816;27;20043;-83
2022/10/24 12:41:59;;;;;;;4.97;1.20;;;17.10;99.90;;;;;;5135207;27;20030;-83
2022/10/24 12:44:31;;;;;;;10.07;1.70;;;17.10;99.90;;;;;;5153538;27;20465;-83
2022/10/24 12:46:56;;;;;;;5.75;1.40;;;17.00;99.90;;;;;;5156113;27;20042;-82
2022/10/24 12:49:32;;;;;;;6.10;1.42;;;17.00;99.90;;;;;;5133341;27;20039;-83
2022/10/24 12:52:05;;;;;;;5.40;1.10;;;17.10;99.90;;;;;;5136959;27;20045;-83
2022/10/24 12:54:43;;;;;;;4.32;1.00;;;17.00;99.90;;;;;;5140227;27;20051;-84
2022/10/24 12:57:11;;;;;;;5.72;1.00;;;17.00;99.90;;;;;;5131272;27;20498;-84
2022/10/24 12:59:50;;;;;;;6.60;1.00;;;17.10;99.90;;;;;;5157181;27;20495;-83
2022/10/24 13:02:24;;;;;;;3.42;0.88;;;17.00;99.90;;;;;;5139001;27;20501;-84
2022/10/24 13:05:07;;;;;;;6.22;0.93;;;17.10;99.90;;;;;;5138713;27;20055;-83
2022/10/24 13:07:55;;;;;;;3.28;1.25;;;17.00;99.90;;;;;;5138302;27;20061;-85